Time;durP1;ratioP1;P1;durP2;ratioP2;P2;SDS_P1;SDS_P2;PMS_P1;PMS_P2;Temp;Humidity;BMP_temperature;BMP_pressure;BME280_temperature;BME280_humidity;BME280_pressure;Samples;Min_cycle;Max_cycle;Signal;HPM_P1;HPM_P2
2022/04/05 00:00:24;;;;;;;14.17;12.50;;;8.20;85.90;;;;;;5046703;28;20300;-71
2022/04/05 00:02:51;;;;;;;16.83;11.83;;;8.20;85.70;;;;;;5046820;28;20257;-71
2022/04/05 00:05:19;;;;;;;15.97;13.07;;;8.20;85.60;;;;;;5046676;28;20281;-71
2022/04/05 00:07:46;;;;;;;16.70;13.60;;;8.20;85.40;;;;;;5061779;28;20276;-71
2022/04/05 00:10:14;;;;;;;17.70;13.30;;;8.30;85.40;;;;;;5046561;28;20709;-71
2022/04/05 00:12:41;;;;;;;17.03;13.80;;;8.20;85.10;;;;;;5046050;28;20299;-71
2022/04/05 00:15:10;;;;;;;15.57;12.23;;;8.20;84.90;;;;;;5046706;28;20677;-71
2022/04/05 00:17:38;;;;;;;14.90;12.83;;;8.20;84.70;;;;;;5047701;28;20204;-71
2022/04/05 00:20:07;;;;;;;20.40;13.67;;;8.20;84.60;;;;;;5031706;28;20305;-71
2022/04/05 00:22:35;;;;;;;15.60;13.27;;;8.20;84.60;;;;;;5045508;28;20231;-71
2022/04/05 00:25:03;;;;;;;16.50;13.33;;;8.10;84.60;;;;;;5046961;28;20237;-71
2022/04/05 00:27:30;;;;;;;17.97;12.87;;;8.10;84.70;;;;;;5051160;28;20283;-71
2022/04/05 00:29:59;;;;;;;15.50;12.67;;;8.10;85.30;;;;;;5065656;28;20677;-71
2022/04/05 00:32:27;;;;;;;15.23;12.63;;;8.00;84.50;;;;;;5050628;28;20241;-71
2022/04/05 00:34:54;;;;;;;17.27;14.27;;;8.00;84.70;;;;;;5048585;28;20312;-71
2022/04/05 00:37:21;;;;;;;17.20;13.70;;;8.00;84.70;;;;;;5050420;28;20331;-71
2022/04/05 00:39:50;;;;;;;16.87;13.63;;;7.90;84.80;;;;;;5050232;28;20288;-71
2022/04/05 00:42:17;;;;;;;15.10;13.10;;;7.90;84.80;;;;;;5066059;28;20683;-71
2022/04/05 00:44:45;;;;;;;17.23;13.93;;;7.90;84.90;;;;;;5049865;28;20213;-71
2022/04/05 00:47:21;;;;;;;16.03;13.57;;;7.80;84.90;;;;;;5065584;28;20202;-71
2022/04/05 00:49:50;;;;;;;18.40;14.00;;;7.80;85.00;;;;;;5065945;28;20205;-71
2022/04/05 00:52:20;;;;;;;14.20;12.40;;;7.80;85.10;;;;;;5050039;28;20208;-71
2022/04/05 00:54:50;;;;;;;17.27;13.83;;;7.70;85.20;;;;;;5050424;28;20538;-71
2022/04/05 00:57:19;;;;;;;16.40;13.67;;;7.70;85.10;;;;;;5050130;28;20214;-71
2022/04/05 00:59:49;;;;;;;16.60;13.83;;;7.70;85.20;;;;;;5066161;28;20204;-71
2022/04/05 01:02:20;;;;;;;16.13;12.97;;;7.70;85.20;;;;;;5049052;28;20221;-71
2022/04/05 01:04:48;;;;;;;16.10;13.00;;;7.70;85.20;;;;;;5048866;28;20236;-71
2022/04/05 01:07:22;;;;;;;17.40;13.53;;;7.60;85.20;;;;;;5051399;28;20216;-71
2022/04/05 01:09:54;;;;;;;16.67;13.50;;;7.60;85.20;;;;;;5050367;28;20260;-71
2022/04/05 01:12:22;;;;;;;21.07;14.57;;;7.60;85.80;;;;;;5051882;28;20198;-71
2022/04/05 01:14:50;;;;;;;17.97;13.63;;;7.60;85.20;;;;;;5051007;28;20292;-71
2022/04/05 01:17:18;;;;;;;17.70;13.27;;;7.60;85.20;;;;;;5050132;28;20209;-71
2022/04/05 01:19:49;;;;;;;18.67;14.37;;;7.50;85.20;;;;;;5049418;28;20315;-71
2022/04/05 01:22:16;;;;;;;18.53;13.77;;;7.50;85.30;;;;;;5049908;28;20218;-71
2022/04/05 01:24:44;;;;;;;18.53;14.47;;;7.50;85.30;;;;;;5050213;28;20203;-71
2022/04/05 01:27:18;;;;;;;15.33;13.23;;;7.50;85.30;;;;;;5048516;28;20208;-71
2022/04/05 01:29:49;;;;;;;18.00;15.40;;;7.50;85.30;;;;;;5050167;28;20319;-71
2022/04/05 01:32:16;;;;;;;20.87;14.33;;;7.50;85.30;;;;;;5048896;28;20198;-71
2022/04/05 01:34:43;;;;;;;19.33;15.10;;;7.50;85.50;;;;;;5048938;28;20205;-71
2022/04/05 01:37:11;;;;;;;18.40;14.83;;;7.50;85.70;;;;;;5047892;28;20232;-71
2022/04/05 01:39:40;;;;;;;20.67;16.50;;;7.50;85.80;;;;;;5049672;28;20324;-71
2022/04/05 01:42:09;;;;;;;17.13;14.67;;;7.50;85.80;;;;;;5049355;28;20237;-71
2022/04/05 01:44:38;;;;;;;19.77;14.37;;;7.60;85.80;;;;;;5049508;28;21687;-71
2022/04/05 01:47:09;;;;;;;20.10;14.70;;;7.50;85.60;;;;;;5049227;28;20976;-71
2022/04/05 01:49:37;;;;;;;23.00;15.30;;;7.60;85.50;;;;;;5049594;28;20614;-71
2022/04/05 01:52:05;;;;;;;17.77;14.23;;;7.50;85.20;;;;;;5050829;28;20211;-71
2022/04/05 01:54:32;;;;;;;18.00;14.93;;;7.50;85.20;;;;;;5049932;28;20233;-71
2022/04/05 01:56:59;;;;;;;19.80;15.53;;;7.50;85.20;;;;;;5049287;28;20203;-71
2022/04/05 01:59:29;;;;;;;19.40;15.50;;;7.50;85.20;;;;;;5049183;28;20206;-71
2022/04/05 02:01:56;;;;;;;21.10;15.67;;;7.40;85.20;;;;;;5049997;28;20263;-71
2022/04/05 02:04:24;;;;;;;18.17;14.60;;;7.40;85.30;;;;;;5048786;28;20345;-71
2022/04/05 02:06:51;;;;;;;20.50;15.30;;;7.40;85.40;;;;;;5048595;28;20209;-71
2022/04/05 02:09:18;;;;;;;23.90;16.23;;;7.40;85.50;;;;;;5048836;28;20676;-71
2022/04/05 02:11:47;;;;;;;23.27;16.27;;;7.40;85.60;;;;;;5065218;28;20295;-71
2022/04/05 02:14:27;;;;;;;22.10;15.17;;;7.40;85.70;;;;;;5028463;28;20271;-71
2022/04/05 02:16:57;;;;;;;17.37;14.63;;;7.30;85.80;;;;;;5048786;28;20292;-71
2022/04/05 02:19:24;;;;;;;18.23;15.70;;;7.40;86.00;;;;;;5046361;28;20202;-71
2022/04/05 02:21:53;;;;;;;19.90;15.40;;;7.30;86.00;;;;;;5032529;28;20255;-71
2022/04/05 02:24:22;;;;;;;19.40;15.73;;;7.30;86.00;;;;;;5048620;28;20323;-71
2022/04/05 02:26:50;;;;;;;19.93;15.73;;;7.30;85.90;;;;;;5063159;28;20210;-71
2022/04/05 02:29:20;;;;;;;19.97;15.53;;;7.30;85.80;;;;;;5047233;28;20214;-71
2022/04/05 02:31:51;;;;;;;21.37;16.20;;;7.30;85.80;;;;;;5063353;28;20280;-71
2022/04/05 02:34:19;;;;;;;18.87;14.90;;;7.20;85.90;;;;;;5047784;28;20259;-71
2022/04/05 02:36:56;;;;;;;19.90;15.70;;;7.10;85.90;;;;;;5064528;28;20725;-71
2022/04/05 02:39:23;;;;;;;19.93;15.47;;;7.10;85.90;;;;;;5046379;28;20224;-71
2022/04/05 02:41:55;;;;;;;19.53;14.67;;;7.10;86.10;;;;;;5064318;28;20310;-71
2022/04/05 02:44:23;;;;;;;17.70;14.50;;;7.10;86.20;;;;;;5062637;28;20237;-71
2022/04/05 02:46:57;;;;;;;20.20;14.83;;;7.00;86.20;;;;;;5063090;28;20206;-71
2022/04/05 02:49:28;;;;;;;18.83;14.60;;;7.00;86.40;;;;;;5062121;28;20206;-71
2022/04/05 02:51:55;;;;;;;19.43;14.27;;;7.00;86.50;;;;;;5046354;28;20225;-71
2022/04/05 02:54:30;;;;;;;18.63;14.73;;;7.00;86.70;;;;;;5047982;28;20518;-71
2022/04/05 02:56:59;;;;;;;18.70;14.80;;;7.00;86.90;;;;;;5032210;28;20653;-71
2022/04/05 02:59:27;;;;;;;18.60;14.87;;;7.00;87.00;;;;;;5048104;28;20236;-71
2022/04/05 03:01:54;;;;;;;18.30;15.17;;;7.00;87.00;;;;;;5032720;28;20292;-71
2022/04/05 03:04:22;;;;;;;18.33;16.23;;;7.00;87.10;;;;;;5037952;28;20234;-71
2022/04/05 03:06:51;;;;;;;18.53;15.30;;;7.00;87.10;;;;;;5063527;28;20284;-71
2022/04/05 03:09:21;;;;;;;20.07;15.97;;;7.00;87.20;;;;;;5063572;28;20320;-71
2022/04/05 03:11:51;;;;;;;18.87;15.83;;;7.00;87.20;;;;;;5047148;28;20205;-71
2022/04/05 03:14:18;;;;;;;21.33;16.57;;;7.00;87.30;;;;;;5047314;28;20218;-71
2022/04/05 03:16:46;;;;;;;20.90;15.73;;;7.00;87.40;;;;;;5052242;28;20216;-71
2022/04/05 03:19:17;;;;;;;18.03;14.83;;;7.00;87.40;;;;;;5063840;28;20300;-71
2022/04/05 03:21:47;;;;;;;17.87;14.93;;;7.00;87.30;;;;;;5048349;28;20206;-71
2022/04/05 03:24:14;;;;;;;19.50;15.13;;;7.00;86.90;;;;;;5047418;28;20244;-71
2022/04/05 03:26:41;;;;;;;21.83;16.03;;;7.00;86.70;;;;;;5046492;28;20536;-71
2022/04/05 03:29:10;;;;;;;21.37;15.70;;;6.90;86.50;;;;;;5063882;28;20213;-71
2022/04/05 03:31:37;;;;;;;20.13;16.03;;;6.90;86.40;;;;;;5047948;28;20210;-71
2022/04/05 03:34:05;;;;;;;19.47;15.50;;;6.90;86.40;;;;;;5046537;28;20228;-71
2022/04/05 03:36:33;;;;;;;21.50;15.77;;;6.80;86.50;;;;;;5062913;28;20206;-71
2022/04/05 03:39:00;;;;;;;28.47;16.80;;;6.80;86.60;;;;;;5046411;28;20236;-71
2022/04/05 03:41:29;;;;;;;19.20;16.47;;;6.70;86.50;;;;;;5045678;28;20239;-71
2022/04/05 03:43:58;;;;;;;20.63;16.63;;;6.70;86.50;;;;;;5046464;28;20767;-70
2022/04/05 03:46:33;;;;;;;23.63;17.77;;;6.70;86.60;;;;;;5046504;28;20209;-70
2022/04/05 03:49:02;;;;;;;22.53;17.90;;;6.60;86.60;;;;;;5046290;28;20205;-70
2022/04/05 03:51:29;;;;;;;26.67;19.80;;;6.60;86.70;;;;;;5062022;28;20275;-70
2022/04/05 03:54:00;;;;;;;22.93;18.10;;;6.60;86.70;;;;;;5049091;28;20213;-70
2022/04/05 03:56:31;;;;;;;23.80;19.73;;;6.60;86.70;;;;;;5030979;28;20209;-70
2022/04/05 03:59:02;;;;;;;24.83;19.30;;;6.50;86.60;;;;;;5044908;28;20217;-70
2022/04/05 04:01:30;;;;;;;25.53;20.17;;;6.50;86.70;;;;;;5062468;28;20210;-70
2022/04/05 04:03:58;;;;;;;26.23;20.07;;;6.50;86.80;;;;;;5062414;28;20250;-70
2022/04/05 04:06:26;;;;;;;25.17;19.57;;;6.50;86.90;;;;;;5062702;28;20655;-70
2022/04/05 04:08:54;;;;;;;27.23;20.17;;;6.50;87.10;;;;;;5061484;28;20205;-70
2022/04/05 04:11:22;;;;;;;29.33;21.23;;;6.40;87.10;;;;;;5029830;28;20289;-70
2022/04/05 04:13:51;;;;;;;22.30;19.50;;;6.40;87.20;;;;;;5045865;28;20301;-71
2022/04/05 04:16:22;;;;;;;24.57;19.13;;;6.40;87.40;;;;;;5046367;28;20233;-71
2022/04/05 04:18:49;;;;;;;26.30;20.23;;;6.40;87.40;;;;;;5046012;28;20283;-70
2022/04/05 04:21:17;;;;;;;26.00;19.37;;;6.40;87.50;;;;;;5045641;28;20212;-70
2022/04/05 04:23:45;;;;;;;25.80;20.93;;;6.40;87.60;;;;;;5060389;28;20308;-70
2022/04/05 04:26:13;;;;;;;28.03;20.87;;;6.40;87.60;;;;;;5045639;28;20216;-70
2022/04/05 04:28:40;;;;;;;26.40;21.97;;;6.40;87.70;;;;;;5046690;28;20209;-70
2022/04/05 04:31:07;;;;;;;32.57;22.57;;;6.40;87.80;;;;;;5046317;28;20328;-71
2022/04/05 04:33:34;;;;;;;35.87;24.33;;;6.40;87.90;;;;;;5047812;28;20346;-71
2022/04/05 04:36:02;;;;;;;27.07;21.63;;;6.40;88.10;;;;;;5052031;28;20641;-70
2022/04/05 04:38:30;;;;;;;30.67;23.67;;;6.40;88.30;;;;;;5051439;28;20237;-71
2022/04/05 04:40:57;;;;;;;31.20;23.37;;;6.40;88.50;;;;;;5046858;28;20296;-70
2022/04/05 04:43:26;;;;;;;30.87;21.87;;;6.40;88.50;;;;;;5047151;28;20248;-71
2022/04/05 04:45:59;;;;;;;27.30;22.30;;;6.40;88.50;;;;;;5044519;28;20303;-71
2022/04/05 04:48:28;;;;;;;24.60;20.23;;;6.40;88.30;;;;;;5047297;28;20216;-72
2022/04/05 04:50:55;;;;;;;29.57;20.63;;;6.40;88.20;;;;;;5063256;28;20236;-71
2022/04/05 04:53:22;;;;;;;27.70;19.90;;;6.40;88.10;;;;;;5061332;28;20612;-71
2022/04/05 04:55:50;;;;;;;26.70;19.87;;;6.40;88.10;;;;;;5047129;28;21997;-70
2022/04/05 04:58:37;;;;;;;27.90;19.63;;;6.30;88.00;;;;;;5045019;28;20271;-71
2022/04/05 05:01:04;;;;;;;26.03;20.37;;;6.30;87.70;;;;;;5047436;28;20275;-71
2022/04/05 05:03:32;;;;;;;22.93;18.63;;;6.30;87.60;;;;;;5045609;28;20248;-71
2022/04/05 05:05:59;;;;;;;25.53;19.83;;;6.30;87.70;;;;;;5048378;28;20205;-71
2022/04/05 05:08:27;;;;;;;21.00;17.80;;;6.30;87.80;;;;;;5047013;28;20395;-71
2022/04/05 05:10:54;;;;;;;24.17;16.93;;;6.30;87.90;;;;;;5045937;28;20245;-71
2022/04/05 05:13:21;;;;;;;20.20;17.33;;;6.30;87.80;;;;;;5065631;28;20215;-71
2022/04/05 05:15:50;;;;;;;21.93;17.77;;;6.40;87.90;;;;;;5048612;28;20299;-69
2022/04/05 05:18:17;;;;;;;24.77;17.83;;;6.50;88.00;;;;;;5050279;28;20642;-69
2022/04/05 05:20:44;;;;;;;19.87;15.37;;;6.70;87.40;;;;;;5049450;28;20218;-69
2022/04/05 05:23:11;;;;;;;20.80;15.93;;;6.90;86.50;;;;;;5051278;28;20220;-70
2022/04/05 05:25:39;;;;;;;16.87;15.00;;;7.10;85.90;;;;;;5064886;28;20221;-69
2022/04/05 05:28:06;;;;;;;21.10;16.47;;;7.40;85.00;;;;;;5049523;28;20210;-70
2022/04/05 05:30:34;;;;;;;20.83;16.77;;;7.60;83.90;;;;;;5050246;28;20282;-70
2022/04/05 05:33:01;;;;;;;20.63;16.37;;;7.80;83.40;;;;;;5051154;28;20293;-69
2022/04/05 05:35:29;;;;;;;22.97;16.63;;;7.90;83.10;;;;;;5057678;28;20310;-70
2022/04/05 05:37:56;;;;;;;24.43;16.50;;;7.90;82.70;;;;;;5049885;28;20205;-69
2022/04/05 05:40:23;;;;;;;19.47;16.97;;;7.90;82.70;;;;;;5048612;28;20234;-69
2022/04/05 05:42:58;;;;;;;22.20;17.77;;;7.90;83.00;;;;;;5054088;28;20223;-69
2022/04/05 05:45:28;;;;;;;22.07;16.63;;;8.00;83.40;;;;;;5064102;28;20226;-70
2022/04/05 05:47:55;;;;;;;18.17;15.83;;;8.00;83.50;;;;;;5048817;28;20291;-70
2022/04/05 05:50:23;;;;;;;22.10;16.53;;;8.10;83.60;;;;;;5050011;28;20243;-70
2022/04/05 05:52:51;;;;;;;22.07;17.70;;;8.10;83.70;;;;;;5065073;28;20217;-69
2022/04/05 05:55:20;;;;;;;21.20;17.57;;;8.20;83.80;;;;;;5049227;28;20220;-70
2022/04/05 05:57:47;;;;;;;31.03;18.53;;;8.40;83.80;;;;;;5049372;28;20290;-70
2022/04/05 06:00:20;;;;;;;23.80;17.97;;;8.60;83.30;;;;;;5050135;28;20328;-70
2022/04/05 06:02:50;;;;;;;20.67;17.70;;;8.80;82.40;;;;;;5050190;28;20202;-70
2022/04/05 06:05:18;;;;;;;20.93;18.13;;;9.20;81.40;;;;;;5049424;28;20311;-70
2022/04/05 06:07:45;;;;;;;21.37;15.67;;;9.70;79.30;;;;;;5048730;28;20210;-70
2022/04/05 06:10:13;;;;;;;15.90;12.87;;;10.20;76.90;;;;;;5049561;28;20249;-70
2022/04/05 06:12:43;;;;;;;13.83;11.93;;;10.80;74.30;;;;;;5048647;28;20534;-71
2022/04/05 06:15:12;;;;;;;14.03;10.43;;;11.40;71.20;;;;;;5049364;28;20260;-70
2022/04/05 06:17:42;;;;;;;11.97;10.63;;;11.90;68.40;;;;;;5031945;28;20264;-71
2022/04/05 06:20:10;;;;;;;12.53;10.80;;;12.20;66.40;;;;;;5049470;28;20213;-70
2022/04/05 06:22:55;;;;;;;11.70;9.83;;;12.30;65.60;;;;;;5047457;28;20650;-71
2022/04/05 06:25:36;;;;;;;10.97;9.23;;;12.30;65.60;;;;;;5050022;28;20233;-71
2022/04/05 06:28:05;;;;;;;13.60;9.47;;;12.20;66.40;;;;;;5048648;28;20658;-70
2022/04/05 06:30:35;;;;;;;13.03;10.10;;;12.00;67.20;;;;;;5049622;28;20769;-70
2022/04/05 06:33:11;;;;;;;15.13;9.80;;;11.90;67.90;;;;;;5064598;28;20236;-70
2022/04/05 06:35:43;;;;;;;14.10;10.00;;;11.70;68.90;;;;;;5031651;28;20604;-70
2022/04/05 06:38:10;;;;;;;16.10;9.80;;;11.50;69.70;;;;;;5048147;28;20218;-70
2022/04/05 06:40:38;;;;;;;16.37;10.53;;;11.50;70.40;;;;;;5063281;28;20592;-70
2022/04/05 06:43:05;;;;;;;11.47;10.03;;;11.40;70.40;;;;;;5063593;28;20211;-70
2022/04/05 06:45:32;;;;;;;14.27;10.20;;;11.40;70.70;;;;;;5048252;28;20313;-70
2022/04/05 06:48:00;;;;;;;12.63;10.27;;;11.40;71.10;;;;;;5047500;28;20199;-70
2022/04/05 06:50:28;;;;;;;13.33;9.83;;;11.40;71.50;;;;;;5047507;28;20262;-70
2022/04/05 06:52:57;;;;;;;16.67;11.47;;;11.50;71.60;;;;;;5046859;28;21799;-70
2022/04/05 06:55:25;;;;;;;14.33;11.37;;;11.50;71.70;;;;;;5048045;28;20256;-71
2022/04/05 06:57:53;;;;;;;12.50;10.90;;;11.60;72.10;;;;;;5048497;28;20260;-71
2022/04/05 07:00:23;;;;;;;12.80;10.60;;;11.70;72.10;;;;;;5048192;28;20244;-71
2022/04/05 07:02:52;;;;;;;12.87;11.43;;;11.80;72.00;;;;;;5048437;28;20209;-70
2022/04/05 07:05:20;;;;;;;13.30;11.90;;;11.90;72.10;;;;;;5048396;28;20224;-70
2022/04/05 07:07:47;;;;;;;14.53;12.23;;;12.00;71.80;;;;;;5046293;28;20278;-70
2022/04/05 07:10:17;;;;;;;15.40;11.60;;;12.10;71.70;;;;;;5048570;28;20236;-70
2022/04/05 07:12:45;;;;;;;14.57;12.47;;;12.20;71.70;;;;;;5047457;28;20627;-70
2022/04/05 07:15:13;;;;;;;13.47;11.93;;;12.30;71.50;;;;;;5049425;28;20228;-70
2022/04/05 07:17:41;;;;;;;13.17;11.23;;;12.40;71.60;;;;;;5045552;28;20237;-70
2022/04/05 07:20:28;;;;;;;12.37;11.07;;;12.50;71.10;;;;;;5046077;28;20215;-70
2022/04/05 07:22:55;;;;;;;14.70;12.67;;;12.60;71.40;;;;;;5047048;28;20661;-70
2022/04/05 07:25:23;;;;;;;16.80;11.33;;;12.70;70.40;;;;;;5048104;28;20304;-71
2022/04/05 07:27:51;;;;;;;15.13;11.30;;;12.80;70.30;;;;;;5048929;28;20206;-71
2022/04/05 07:30:20;;;;;;;13.23;11.73;;;12.90;70.10;;;;;;5048217;28;20203;-71
2022/04/05 07:32:48;;;;;;;14.77;11.63;;;13.00;69.70;;;;;;5046151;28;20210;-70
2022/04/05 07:35:17;;;;;;;17.97;11.77;;;13.10;69.60;;;;;;5046592;28;20213;-71
2022/04/05 07:37:45;;;;;;;13.27;11.87;;;13.20;69.00;;;;;;5031063;28;20206;-71
2022/04/05 07:40:13;;;;;;;12.03;10.83;;;13.40;69.30;;;;;;5045322;28;20251;-71
2022/04/05 07:42:43;;;;;;;15.33;11.40;;;13.50;69.20;;;;;;5047686;28;20212;-71
2022/04/05 07:45:12;;;;;;;12.47;10.63;;;13.70;68.70;;;;;;5047065;28;20651;-71
2022/04/05 07:47:40;;;;;;;15.00;10.87;;;13.80;68.50;;;;;;5046179;28;20334;-71
2022/04/05 07:50:09;;;;;;;12.50;9.60;;;14.00;68.10;;;;;;5062630;28;20295;-71
2022/04/05 07:52:36;;;;;;;12.70;11.37;;;14.10;67.10;;;;;;5046188;28;20297;-71
2022/04/05 07:55:04;;;;;;;13.03;10.60;;;14.30;66.40;;;;;;5045990;28;20264;-72
2022/04/05 07:57:31;;;;;;;12.37;10.63;;;14.40;66.10;;;;;;5061025;28;20562;-71
2022/04/05 07:59:58;;;;;;;19.50;12.47;;;14.50;62.10;;;;;;5063843;28;20280;-71
2022/04/05 08:02:26;;;;;;;17.33;12.33;;;14.50;62.80;;;;;;5046983;28;20709;-71
2022/04/05 08:04:58;;;;;;;13.97;12.40;;;14.60;63.60;;;;;;5046767;28;20283;-72
2022/04/05 08:07:25;;;;;;;15.37;12.97;;;14.70;64.20;;;;;;5047955;28;20209;-71
2022/04/05 08:09:52;;;;;;;19.47;14.33;;;14.70;60.70;;;;;;5045289;28;20687;-71
2022/04/05 08:12:19;;;;;;;16.23;13.93;;;14.80;61.90;;;;;;5048099;28;20281;-71
2022/04/05 08:14:47;;;;;;;18.73;13.37;;;14.90;62.50;;;;;;5050688;28;20713;-71
2022/04/05 08:17:14;;;;;;;17.60;12.33;;;15.10;62.20;;;;;;5050414;28;20219;-71
2022/04/05 08:19:41;;;;;;;21.17;13.37;;;15.20;62.10;;;;;;5050629;28;20210;-71
2022/04/05 08:22:08;;;;;;;16.43;13.63;;;15.40;61.20;;;;;;5067485;28;20233;-70
2022/04/05 08:24:36;;;;;;;20.20;13.30;;;15.50;60.40;;;;;;5055725;28;20233;-70
2022/04/05 08:27:03;;;;;;;21.67;14.20;;;15.60;58.70;;;;;;5051241;28;20260;-69
2022/04/05 08:29:30;;;;;;;22.73;15.30;;;15.80;59.00;;;;;;5049332;28;20282;-69
2022/04/05 08:31:57;;;;;;;22.20;14.47;;;15.90;58.10;;;;;;5066437;28;20305;-69
2022/04/05 08:34:24;;;;;;;23.40;15.33;;;15.90;54.70;;;;;;5050981;28;20205;-69
2022/04/05 08:36:53;;;;;;;22.83;15.40;;;15.80;54.10;;;;;;5050159;28;20215;-69
2022/04/05 08:39:20;;;;;;;26.43;16.83;;;15.80;54.20;;;;;;5050401;28;20207;-71
2022/04/05 08:41:47;;;;;;;21.83;16.07;;;15.70;55.20;;;;;;5050363;28;20541;-71
2022/04/05 08:44:18;;;;;;;23.13;16.33;;;15.80;55.60;;;;;;5050882;28;20582;-72
2022/04/05 08:46:46;;;;;;;26.47;18.87;;;15.80;54.40;;;;;;5067533;28;20210;-72
2022/04/05 08:49:13;;;;;;;22.43;16.37;;;15.90;55.40;;;;;;5053246;28;20209;-72
2022/04/05 08:51:40;;;;;;;27.40;17.13;;;15.90;54.70;;;;;;5055347;28;20198;-72
2022/04/05 08:54:07;;;;;;;23.53;16.87;;;16.10;55.30;;;;;;5053961;28;20251;-72
2022/04/05 08:56:35;;;;;;;22.93;14.73;;;16.10;54.50;;;;;;5055127;28;20551;-69
2022/04/05 08:59:02;;;;;;;26.43;17.00;;;16.20;53.00;;;;;;5053846;28;20254;-69
2022/04/05 09:01:29;;;;;;;25.60;16.73;;;16.20;53.00;;;;;;5054976;28;20202;-72
2022/04/05 09:03:58;;;;;;;21.50;16.27;;;16.20;54.90;;;;;;5053888;28;20198;-72
2022/04/05 09:06:27;;;;;;;23.87;17.00;;;16.30;54.90;;;;;;5053314;28;20321;-72
2022/04/05 09:09:14;;;;;;;25.23;17.33;;;16.30;54.90;;;;;;5057387;28;20260;-72
2022/04/05 09:11:50;;;;;;;20.30;15.60;;;16.40;54.30;;;;;;5054995;28;20202;-72
2022/04/05 09:14:28;;;;;;;20.70;15.60;;;16.40;53.80;;;;;;5054694;28;20191;-72
2022/04/05 09:17:07;;;;;;;23.87;15.67;;;16.50;54.50;;;;;;5054479;28;20296;-69
2022/04/05 09:19:45;;;;;;;22.97;15.43;;;16.60;54.50;;;;;;5054198;28;20214;-71
2022/04/05 09:22:12;;;;;;;24.20;16.00;;;16.80;54.20;;;;;;5054646;28;20198;-72
2022/04/05 09:24:45;;;;;;;22.37;15.93;;;17.00;53.30;;;;;;5055397;28;20311;-72
2022/04/05 09:27:13;;;;;;;23.67;16.87;;;17.30;52.80;;;;;;5054199;28;20258;-69
2022/04/05 09:29:40;;;;;;;25.33;16.97;;;17.50;51.30;;;;;;5054676;28;20278;-69
2022/04/05 09:32:08;;;;;;;28.60;17.03;;;17.60;51.30;;;;;;5053842;28;20202;-70
2022/04/05 09:34:51;;;;;;;19.10;14.93;;;17.70;50.30;;;;;;5053395;28;20246;-71
2022/04/05 09:37:26;;;;;;;23.60;15.90;;;17.70;50.90;;;;;;5047736;28;20234;-73
2022/04/05 09:39:55;;;;;;;25.40;15.40;;;17.80;48.70;;;;;;5050247;28;20209;-72
2022/04/05 09:42:22;;;;;;;21.43;15.40;;;17.90;49.60;;;;;;5050177;28;20203;-73
2022/04/05 09:44:49;;;;;;;23.37;15.53;;;18.00;49.70;;;;;;5051945;28;20219;-72
2022/04/05 09:47:21;;;;;;;18.20;13.53;;;18.20;49.50;;;;;;5052969;28;20277;-71
2022/04/05 09:49:50;;;;;;;21.87;15.23;;;18.30;48.60;;;;;;5050389;28;20214;-71
2022/04/05 09:52:29;;;;;;;21.70;16.00;;;18.40;48.50;;;;;;5050843;28;20239;-71
2022/04/05 09:55:11;;;;;;;19.30;14.60;;;18.50;47.00;;;;;;5049660;28;20895;-71
2022/04/05 09:57:38;;;;;;;19.67;13.70;;;18.50;47.10;;;;;;5048410;28;20240;-69
2022/04/05 10:00:15;;;;;;;23.77;16.13;;;18.50;47.30;;;;;;5050345;28;20229;-69
2022/04/05 10:03:02;;;;;;;23.00;15.20;;;18.40;45.40;;;;;;5049512;28;20206;-70
2022/04/05 10:05:30;;;;;;;20.03;16.60;;;18.30;47.50;;;;;;5050348;28;20211;-70
2022/04/05 10:07:58;;;;;;;24.67;16.63;;;18.20;47.10;;;;;;5049086;28;20214;-70
2022/04/05 10:10:26;;;;;;;21.07;15.90;;;18.20;48.00;;;;;;5049069;28;20254;-70
2022/04/05 10:12:54;;;;;;;16.50;13.13;;;18.30;48.60;;;;;;5050888;28;20205;-69
2022/04/05 10:15:21;;;;;;;19.37;14.50;;;18.40;46.80;;;;;;5064132;28;20202;-69
2022/04/05 10:17:50;;;;;;;19.63;14.83;;;18.60;46.70;;;;;;5050573;28;20218;-69
2022/04/05 10:20:18;;;;;;;22.43;15.07;;;18.70;46.30;;;;;;5048684;28;20203;-69
2022/04/05 10:22:56;;;;;;;20.20;15.00;;;18.80;45.40;;;;;;5049614;28;20577;-70
2022/04/05 10:25:24;;;;;;;19.50;13.90;;;18.90;44.60;;;;;;5049802;28;20239;-70
2022/04/05 10:27:52;;;;;;;19.90;14.03;;;18.90;44.90;;;;;;5049480;28;20233;-71
2022/04/05 10:30:40;;;;;;;15.37;12.73;;;18.80;44.20;;;;;;5049358;28;20213;-71
2022/04/05 10:33:30;;;;;;;18.57;14.03;;;18.90;45.10;;;;;;5064939;28;21828;-71
2022/04/05 10:36:00;;;;;;;20.70;13.80;;;19.10;45.40;;;;;;5045715;28;20537;-71
2022/04/05 10:38:30;;;;;;;16.00;13.77;;;19.20;44.60;;;;;;5048445;28;20279;-71
2022/04/05 10:41:13;;;;;;;17.50;13.33;;;19.40;43.00;;;;;;5064907;28;20199;-72
2022/04/05 10:43:42;;;;;;;19.17;14.07;;;19.20;42.30;;;;;;5047629;28;20711;-71
2022/04/05 10:46:10;;;;;;;16.80;14.13;;;19.20;44.20;;;;;;5063810;28;20926;-71
2022/04/05 10:48:54;;;;;;;18.37;14.63;;;19.30;44.60;;;;;;5049442;28;20279;-71
2022/04/05 10:51:30;;;;;;;16.93;14.30;;;19.40;43.30;;;;;;5047187;28;20250;-71
2022/04/05 10:54:19;;;;;;;15.97;14.27;;;19.40;43.80;;;;;;5049806;28;20210;-71
2022/04/05 10:57:26;;;;;;;15.63;13.50;;;19.50;43.80;;;;;;5048948;28;20303;-71
2022/04/05 11:00:07;;;;;;;18.37;14.27;;;19.50;43.90;;;;;;5048610;28;20233;-71
2022/04/05 11:02:44;;;;;;;17.07;13.97;;;19.60;43.80;;;;;;5049180;28;20660;-71
2022/04/05 11:05:15;;;;;;;16.63;14.77;;;19.70;43.70;;;;;;5048554;28;20223;-72
2022/04/05 11:07:54;;;;;;;15.63;12.30;;;19.70;41.80;;;;;;5049187;28;20275;-71
2022/04/05 11:10:45;;;;;;;16.13;11.97;;;19.70;43.40;;;;;;5046412;28;20302;-71
2022/04/05 11:13:17;;;;;;;15.47;12.87;;;19.70;44.20;;;;;;5048556;28;20307;-71
2022/04/05 11:15:51;;;;;;;15.90;13.77;;;19.80;43.70;;;;;;5048012;28;20212;-71
2022/04/05 11:18:20;;;;;;;17.70;14.50;;;19.90;44.00;;;;;;5046535;28;20216;-71
2022/04/05 11:20:49;;;;;;;14.93;12.80;;;20.00;43.20;;;;;;5048315;28;20280;-71
2022/04/05 11:23:18;;;;;;;16.07;13.23;;;20.10;43.10;;;;;;5047489;28;20299;-71
2022/04/05 11:25:47;;;;;;;16.87;14.47;;;20.20;42.40;;;;;;5044509;28;20231;-71
2022/04/05 11:28:16;;;;;;;15.67;14.03;;;20.30;42.30;;;;;;5048112;28;20203;-71
2022/04/05 11:30:52;;;;;;;17.37;14.07;;;20.20;40.70;;;;;;5047751;28;20195;-71
2022/04/05 11:33:33;;;;;;;16.60;14.63;;;20.10;41.70;;;;;;5048473;28;20279;-71
2022/04/05 11:36:03;;;;;;;17.80;14.07;;;20.00;41.90;;;;;;5048161;28;20648;-71
2022/04/05 11:38:33;;;;;;;14.93;13.37;;;20.00;41.50;;;;;;5037888;28;20626;-71
2022/04/05 11:41:12;;;;;;;16.47;12.83;;;19.90;42.20;;;;;;5046847;28;20609;-71
2022/04/05 11:43:42;;;;;;;15.17;13.27;;;19.90;43.10;;;;;;5047515;28;20220;-71
2022/04/05 11:46:18;;;;;;;18.17;13.40;;;19.90;44.10;;;;;;5047121;28;20225;-71
2022/04/05 11:48:53;;;;;;;15.10;13.00;;;20.00;42.80;;;;;;5046797;28;20206;-71
2022/04/05 11:51:32;;;;;;;14.80;13.27;;;20.10;43.20;;;;;;5047898;28;20278;-72
2022/04/05 11:54:09;;;;;;;16.80;13.70;;;20.20;42.90;;;;;;5047761;28;20235;-72
2022/04/05 11:56:41;;;;;;;17.17;14.10;;;20.30;41.20;;;;;;5046995;28;20206;-72
2022/04/05 11:59:11;;;;;;;17.07;14.33;;;20.30;41.20;;;;;;5048873;28;20207;-72
2022/04/05 12:01:42;;;;;;;14.70;13.10;;;20.30;42.30;;;;;;5048281;28;20203;-71
2022/04/05 12:04:14;;;;;;;14.93;13.33;;;20.20;41.90;;;;;;5048537;28;20564;-71
2022/04/05 12:06:46;;;;;;;14.40;12.90;;;20.20;43.00;;;;;;5048667;28;20237;-71
2022/04/05 12:09:18;;;;;;;13.20;11.90;;;20.00;42.60;;;;;;5047122;28;20338;-71
2022/04/05 12:11:48;;;;;;;13.87;11.77;;;19.80;42.00;;;;;;5045386;28;20208;-72
2022/04/05 12:14:17;;;;;;;13.20;11.83;;;19.70;41.70;;;;;;5048727;28;20199;-71
2022/04/05 12:16:54;;;;;;;13.73;11.43;;;19.50;42.20;;;;;;5047583;28;20207;-72
2022/04/05 12:19:32;;;;;;;14.43;10.70;;;19.40;42.40;;;;;;5047358;28;20211;-72
2022/04/05 12:22:12;;;;;;;13.67;11.87;;;19.50;43.40;;;;;;5050909;28;20208;-72
2022/04/05 12:24:43;;;;;;;12.40;10.97;;;19.50;43.00;;;;;;5050712;28;20281;-72
2022/04/05 12:27:10;;;;;;;15.90;12.23;;;19.70;42.20;;;;;;5050276;28;20304;-72
2022/04/05 12:29:39;;;;;;;15.07;11.83;;;19.90;42.10;;;;;;5050658;28;20284;-72
2022/04/05 12:32:10;;;;;;;12.67;11.33;;;19.90;40.60;;;;;;5051377;28;20212;-72
2022/04/05 12:34:38;;;;;;;14.00;12.43;;;19.90;41.70;;;;;;5050143;28;20674;-72
2022/04/05 12:37:05;;;;;;;13.30;11.70;;;20.00;41.80;;;;;;5067771;28;21694;-72
2022/04/05 12:39:40;;;;;;;15.07;13.00;;;20.00;41.00;;;;;;5052278;28;20622;-72
2022/04/05 12:42:09;;;;;;;14.90;12.03;;;20.00;40.10;;;;;;5051542;28;20214;-71
2022/04/05 12:44:39;;;;;;;14.73;12.63;;;19.90;41.40;;;;;;5050938;28;20228;-71
2022/04/05 12:47:25;;;;;;;13.50;11.57;;;19.90;40.20;;;;;;5051509;28;20220;-71